sensor_id;sensor_type;location;lat;lon;timestamp;P1;durP1;ratioP1;P2;durP2;ratioP2
34565;SDS011;20803;42.676;26.348;2023-08-06T00:01:25;6.80;;;6.10;;
34565;SDS011;20803;42.676;26.348;2023-08-06T00:03:50;9.13;;;6.83;;
34565;SDS011;20803;42.676;26.348;2023-08-06T00:06:16;6.90;;;6.30;;
34565;SDS011;20803;42.676;26.348;2023-08-06T00:08:41;9.27;;;7.03;;
34565;SDS011;20803;42.676;26.348;2023-08-06T00:11:09;10.77;;;6.57;;
34565;SDS011;20803;42.676;26.348;2023-08-06T00:13:35;8.33;;;6.87;;
34565;SDS011;20803;42.676;26.348;2023-08-06T00:16:10;7.37;;;6.67;;
34565;SDS011;20803;42.676;26.348;2023-08-06T00:18:38;7.50;;;6.30;;
34565;SDS011;20803;42.676;26.348;2023-08-06T00:21:04;7.20;;;5.97;;
34565;SDS011;20803;42.676;26.348;2023-08-06T00:23:30;10.47;;;6.73;;
34565;SDS011;20803;42.676;26.348;2023-08-06T00:25:56;7.80;;;5.87;;
34565;SDS011;20803;42.676;26.348;2023-08-06T00:28:21;7.77;;;6.87;;
34565;SDS011;20803;42.676;26.348;2023-08-06T00:30:51;7.30;;;6.33;;
34565;SDS011;20803;42.676;26.348;2023-08-06T00:33:18;8.00;;;6.33;;
34565;SDS011;20803;42.676;26.348;2023-08-06T00:35:43;9.80;;;6.60;;
34565;SDS011;20803;42.676;26.348;2023-08-06T00:38:08;7.27;;;5.83;;
34565;SDS011;20803;42.676;26.348;2023-08-06T00:40:34;8.67;;;6.30;;
34565;SDS011;20803;42.676;26.348;2023-08-06T00:42:59;10.10;;;6.23;;
34565;SDS011;20803;42.676;26.348;2023-08-06T00:45:25;6.70;;;5.73;;
34565;SDS011;20803;42.676;26.348;2023-08-06T00:47:51;8.00;;;5.90;;
34565;SDS011;20803;42.676;26.348;2023-08-06T00:50:17;6.47;;;5.50;;
34565;SDS011;20803;42.676;26.348;2023-08-06T00:52:42;8.43;;;6.37;;
34565;SDS011;20803;42.676;26.348;2023-08-06T00:55:08;7.73;;;6.07;;
34565;SDS011;20803;42.676;26.348;2023-08-06T00:57:35;9.07;;;6.13;;
34565;SDS011;20803;42.676;26.348;2023-08-06T01:00:00;8.67;;;6.20;;
34565;SDS011;20803;42.676;26.348;2023-08-06T01:02:26;8.40;;;5.97;;
34565;SDS011;20803;42.676;26.348;2023-08-06T01:04:51;6.67;;;6.00;;
34565;SDS011;20803;42.676;26.348;2023-08-06T01:07:19;7.60;;;5.53;;
34565;SDS011;20803;42.676;26.348;2023-08-06T01:10:03;6.70;;;6.10;;
34565;SDS011;20803;42.676;26.348;2023-08-06T01:12:50;7.77;;;6.23;;
34565;SDS011;20803;42.676;26.348;2023-08-06T01:15:28;8.60;;;6.20;;
34565;SDS011;20803;42.676;26.348;2023-08-06T01:17:57;9.03;;;6.23;;
34565;SDS011;20803;42.676;26.348;2023-08-06T01:20:27;7.33;;;6.17;;
34565;SDS011;20803;42.676;26.348;2023-08-06T01:22:53;6.43;;;5.80;;
34565;SDS011;20803;42.676;26.348;2023-08-06T01:25:18;7.33;;;6.40;;
34565;SDS011;20803;42.676;26.348;2023-08-06T01:27:44;6.83;;;5.83;;
34565;SDS011;20803;42.676;26.348;2023-08-06T01:30:15;7.37;;;6.13;;
34565;SDS011;20803;42.676;26.348;2023-08-06T01:32:46;8.83;;;6.20;;
34565;SDS011;20803;42.676;26.348;2023-08-06T01:35:15;6.73;;;6.10;;
34565;SDS011;20803;42.676;26.348;2023-08-06T01:37:44;8.67;;;6.33;;
34565;SDS011;20803;42.676;26.348;2023-08-06T01:40:11;7.40;;;6.70;;
34565;SDS011;20803;42.676;26.348;2023-08-06T01:42:38;7.80;;;5.97;;
34565;SDS011;20803;42.676;26.348;2023-08-06T01:45:04;7.00;;;5.97;;
34565;SDS011;20803;42.676;26.348;2023-08-06T01:47:30;7.80;;;6.07;;
34565;SDS011;20803;42.676;26.348;2023-08-06T01:49:56;6.93;;;5.87;;
34565;SDS011;20803;42.676;26.348;2023-08-06T01:52:21;10.53;;;6.53;;
34565;SDS011;20803;42.676;26.348;2023-08-06T01:54:47;8.23;;;6.83;;
34565;SDS011;20803;42.676;26.348;2023-08-06T01:57:12;7.97;;;5.83;;
34565;SDS011;20803;42.676;26.348;2023-08-06T01:59:37;8.17;;;6.63;;
34565;SDS011;20803;42.676;26.348;2023-08-06T02:02:03;7.30;;;6.50;;
34565;SDS011;20803;42.676;26.348;2023-08-06T02:04:29;6.93;;;6.23;;
34565;SDS011;20803;42.676;26.348;2023-08-06T02:06:54;10.47;;;6.63;;
34565;SDS011;20803;42.676;26.348;2023-08-06T02:09:19;7.07;;;6.20;;
34565;SDS011;20803;42.676;26.348;2023-08-06T02:11:45;6.90;;;5.97;;
34565;SDS011;20803;42.676;26.348;2023-08-06T02:14:10;9.40;;;6.33;;
34565;SDS011;20803;42.676;26.348;2023-08-06T02:16:36;11.40;;;6.40;;
34565;SDS011;20803;42.676;26.348;2023-08-06T02:19:02;7.27;;;6.27;;
34565;SDS011;20803;42.676;26.348;2023-08-06T02:21:27;6.97;;;6.10;;
34565;SDS011;20803;42.676;26.348;2023-08-06T02:23:53;7.73;;;6.53;;
34565;SDS011;20803;42.676;26.348;2023-08-06T02:26:18;6.83;;;5.90;;
34565;SDS011;20803;42.676;26.348;2023-08-06T02:28:44;7.03;;;6.30;;
34565;SDS011;20803;42.676;26.348;2023-08-06T02:31:09;9.30;;;6.53;;
34565;SDS011;20803;42.676;26.348;2023-08-06T02:33:35;7.00;;;5.97;;
34565;SDS011;20803;42.676;26.348;2023-08-06T02:36:03;9.83;;;6.30;;
34565;SDS011;20803;42.676;26.348;2023-08-06T02:38:29;6.73;;;6.03;;
34565;SDS011;20803;42.676;26.348;2023-08-06T02:40:55;6.47;;;5.97;;
34565;SDS011;20803;42.676;26.348;2023-08-06T02:43:21;6.30;;;5.70;;
34565;SDS011;20803;42.676;26.348;2023-08-06T02:45:46;8.77;;;5.90;;
34565;SDS011;20803;42.676;26.348;2023-08-06T02:48:12;7.57;;;6.40;;
34565;SDS011;20803;42.676;26.348;2023-08-06T02:50:38;7.43;;;5.90;;
34565;SDS011;20803;42.676;26.348;2023-08-06T02:53:04;8.77;;;6.27;;
34565;SDS011;20803;42.676;26.348;2023-08-06T02:55:30;6.80;;;6.10;;
34565;SDS011;20803;42.676;26.348;2023-08-06T02:57:56;6.40;;;5.80;;
34565;SDS011;20803;42.676;26.348;2023-08-06T03:00:21;9.17;;;6.73;;
34565;SDS011;20803;42.676;26.348;2023-08-06T03:02:47;8.93;;;6.03;;
34565;SDS011;20803;42.676;26.348;2023-08-06T03:05:12;7.33;;;6.17;;
34565;SDS011;20803;42.676;26.348;2023-08-06T03:07:37;7.90;;;6.30;;
34565;SDS011;20803;42.676;26.348;2023-08-06T03:10:03;6.43;;;5.83;;
34565;SDS011;20803;42.676;26.348;2023-08-06T03:12:29;9.33;;;6.63;;
34565;SDS011;20803;42.676;26.348;2023-08-06T03:14:54;9.03;;;6.27;;
34565;SDS011;20803;42.676;26.348;2023-08-06T03:17:20;8.23;;;6.03;;
34565;SDS011;20803;42.676;26.348;2023-08-06T03:19:45;8.20;;;6.23;;
34565;SDS011;20803;42.676;26.348;2023-08-06T03:22:10;7.67;;;6.03;;
34565;SDS011;20803;42.676;26.348;2023-08-06T03:24:36;9.80;;;6.60;;
34565;SDS011;20803;42.676;26.348;2023-08-06T03:27:01;8.43;;;6.07;;
34565;SDS011;20803;42.676;26.348;2023-08-06T03:29:27;6.87;;;6.17;;
34565;SDS011;20803;42.676;26.348;2023-08-06T03:31:52;7.90;;;6.67;;
34565;SDS011;20803;42.676;26.348;2023-08-06T03:34:18;9.43;;;6.93;;
34565;SDS011;20803;42.676;26.348;2023-08-06T03:36:43;9.17;;;6.60;;
34565;SDS011;20803;42.676;26.348;2023-08-06T03:39:09;8.60;;;6.50;;
34565;SDS011;20803;42.676;26.348;2023-08-06T03:41:34;10.67;;;6.83;;
34565;SDS011;20803;42.676;26.348;2023-08-06T03:44:00;8.97;;;6.60;;
34565;SDS011;20803;42.676;26.348;2023-08-06T03:46:27;9.70;;;6.63;;
34565;SDS011;20803;42.676;26.348;2023-08-06T03:48:53;7.77;;;6.13;;
34565;SDS011;20803;42.676;26.348;2023-08-06T03:51:18;9.30;;;6.67;;
34565;SDS011;20803;42.676;26.348;2023-08-06T03:53:44;7.53;;;6.00;;
34565;SDS011;20803;42.676;26.348;2023-08-06T03:56:09;7.40;;;6.43;;
34565;SDS011;20803;42.676;26.348;2023-08-06T03:58:34;10.93;;;6.73;;
34565;SDS011;20803;42.676;26.348;2023-08-06T04:01:00;7.57;;;5.97;;
34565;SDS011;20803;42.676;26.348;2023-08-06T04:03:27;10.10;;;6.53;;
34565;SDS011;20803;42.676;26.348;2023-08-06T04:05:53;9.80;;;6.53;;
34565;SDS011;20803;42.676;26.348;2023-08-06T04:08:19;10.87;;;6.80;;
34565;SDS011;20803;42.676;26.348;2023-08-06T04:10:45;8.47;;;6.43;;
34565;SDS011;20803;42.676;26.348;2023-08-06T04:13:10;7.10;;;6.40;;
34565;SDS011;20803;42.676;26.348;2023-08-06T04:15:36;8.37;;;6.50;;
34565;SDS011;20803;42.676;26.348;2023-08-06T04:18:01;7.87;;;6.20;;
34565;SDS011;20803;42.676;26.348;2023-08-06T04:20:26;9.20;;;6.40;;
34565;SDS011;20803;42.676;26.348;2023-08-06T04:22:54;9.37;;;6.47;;
34565;SDS011;20803;42.676;26.348;2023-08-06T04:25:20;8.13;;;6.13;;
34565;SDS011;20803;42.676;26.348;2023-08-06T04:27:49;9.80;;;6.40;;
34565;SDS011;20803;42.676;26.348;2023-08-06T04:30:14;11.03;;;7.30;;
34565;SDS011;20803;42.676;26.348;2023-08-06T04:32:40;12.27;;;6.70;;
34565;SDS011;20803;42.676;26.348;2023-08-06T04:35:06;10.47;;;6.60;;
34565;SDS011;20803;42.676;26.348;2023-08-06T04:37:31;8.93;;;6.07;;
34565;SDS011;20803;42.676;26.348;2023-08-06T04:39:57;8.87;;;6.40;;
34565;SDS011;20803;42.676;26.348;2023-08-06T04:42:22;9.57;;;6.10;;
34565;SDS011;20803;42.676;26.348;2023-08-06T04:44:48;11.13;;;6.73;;
34565;SDS011;20803;42.676;26.348;2023-08-06T04:47:13;9.13;;;6.73;;
34565;SDS011;20803;42.676;26.348;2023-08-06T04:49:39;10.60;;;7.00;;
34565;SDS011;20803;42.676;26.348;2023-08-06T04:52:04;9.47;;;6.70;;
34565;SDS011;20803;42.676;26.348;2023-08-06T04:54:30;11.83;;;7.00;;
34565;SDS011;20803;42.676;26.348;2023-08-06T04:56:55;8.63;;;6.67;;
34565;SDS011;20803;42.676;26.348;2023-08-06T04:59:21;8.03;;;6.37;;
34565;SDS011;20803;42.676;26.348;2023-08-06T05:01:46;7.57;;;6.50;;
34565;SDS011;20803;42.676;26.348;2023-08-06T05:04:12;9.50;;;6.50;;
34565;SDS011;20803;42.676;26.348;2023-08-06T05:06:37;7.37;;;5.90;;
34565;SDS011;20803;42.676;26.348;2023-08-06T05:09:06;7.77;;;6.13;;
34565;SDS011;20803;42.676;26.348;2023-08-06T05:11:31;7.77;;;6.97;;
34565;SDS011;20803;42.676;26.348;2023-08-06T05:13:57;9.77;;;7.17;;
34565;SDS011;20803;42.676;26.348;2023-08-06T05:16:23;10.30;;;6.13;;
34565;SDS011;20803;42.676;26.348;2023-08-06T05:18:49;9.53;;;6.80;;
34565;SDS011;20803;42.676;26.348;2023-08-06T05:21:14;10.13;;;6.87;;
34565;SDS011;20803;42.676;26.348;2023-08-06T05:23:41;7.40;;;6.37;;
34565;SDS011;20803;42.676;26.348;2023-08-06T05:26:07;6.90;;;6.20;;
34565;SDS011;20803;42.676;26.348;2023-08-06T05:28:32;7.43;;;6.50;;
34565;SDS011;20803;42.676;26.348;2023-08-06T05:30:58;6.60;;;6.00;;
34565;SDS011;20803;42.676;26.348;2023-08-06T05:33:27;9.10;;;6.33;;
34565;SDS011;20803;42.676;26.348;2023-08-06T05:35:53;6.30;;;5.40;;
34565;SDS011;20803;42.676;26.348;2023-08-06T05:38:18;7.27;;;6.27;;
34565;SDS011;20803;42.676;26.348;2023-08-06T05:40:43;13.07;;;7.13;;
34565;SDS011;20803;42.676;26.348;2023-08-06T05:43:09;12.30;;;6.07;;
34565;SDS011;20803;42.676;26.348;2023-08-06T05:45:34;6.67;;;5.97;;
34565;SDS011;20803;42.676;26.348;2023-08-06T05:48:00;6.93;;;6.20;;
34565;SDS011;20803;42.676;26.348;2023-08-06T05:50:25;6.50;;;5.57;;
34565;SDS011;20803;42.676;26.348;2023-08-06T05:52:51;9.80;;;6.03;;
34565;SDS011;20803;42.676;26.348;2023-08-06T05:55:17;7.40;;;5.70;;
34565;SDS011;20803;42.676;26.348;2023-08-06T05:57:42;9.70;;;6.37;;
34565;SDS011;20803;42.676;26.348;2023-08-06T06:00:08;11.87;;;6.60;;
34565;SDS011;20803;42.676;26.348;2023-08-06T06:02:34;10.53;;;5.93;;
34565;SDS011;20803;42.676;26.348;2023-08-06T06:04:59;6.33;;;5.73;;
34565;SDS011;20803;42.676;26.348;2023-08-06T06:07:24;9.20;;;6.23;;
34565;SDS011;20803;42.676;26.348;2023-08-06T06:09:50;8.10;;;6.00;;
34565;SDS011;20803;42.676;26.348;2023-08-06T06:12:15;7.90;;;6.37;;
34565;SDS011;20803;42.676;26.348;2023-08-06T06:14:41;7.93;;;5.87;;
34565;SDS011;20803;42.676;26.348;2023-08-06T06:17:06;6.93;;;5.90;;
34565;SDS011;20803;42.676;26.348;2023-08-06T06:19:32;9.70;;;6.33;;
34565;SDS011;20803;42.676;26.348;2023-08-06T06:21:57;8.40;;;6.13;;
34565;SDS011;20803;42.676;26.348;2023-08-06T06:24:22;10.57;;;6.27;;
34565;SDS011;20803;42.676;26.348;2023-08-06T06:26:48;8.63;;;6.33;;
34565;SDS011;20803;42.676;26.348;2023-08-06T06:29:13;13.40;;;6.87;;
34565;SDS011;20803;42.676;26.348;2023-08-06T06:31:39;9.67;;;6.53;;
34565;SDS011;20803;42.676;26.348;2023-08-06T06:34:04;10.30;;;6.77;;
34565;SDS011;20803;42.676;26.348;2023-08-06T06:36:29;9.43;;;7.03;;
34565;SDS011;20803;42.676;26.348;2023-08-06T06:38:55;9.90;;;6.37;;
34565;SDS011;20803;42.676;26.348;2023-08-06T06:41:20;9.87;;;6.67;;
34565;SDS011;20803;42.676;26.348;2023-08-06T06:43:46;8.03;;;7.23;;
34565;SDS011;20803;42.676;26.348;2023-08-06T06:46:11;14.23;;;6.83;;
34565;SDS011;20803;42.676;26.348;2023-08-06T06:48:36;10.47;;;7.27;;
34565;SDS011;20803;42.676;26.348;2023-08-06T06:51:02;9.90;;;6.77;;
34565;SDS011;20803;42.676;26.348;2023-08-06T06:53:28;11.27;;;6.93;;
34565;SDS011;20803;42.676;26.348;2023-08-06T06:55:56;9.17;;;7.33;;
34565;SDS011;20803;42.676;26.348;2023-08-06T06:58:27;11.70;;;7.80;;
34565;SDS011;20803;42.676;26.348;2023-08-06T07:00:53;8.13;;;7.03;;
34565;SDS011;20803;42.676;26.348;2023-08-06T07:03:19;10.70;;;7.10;;
34565;SDS011;20803;42.676;26.348;2023-08-06T07:05:45;8.50;;;7.20;;
34565;SDS011;20803;42.676;26.348;2023-08-06T07:08:10;8.67;;;6.73;;
34565;SDS011;20803;42.676;26.348;2023-08-06T07:10:36;10.23;;;7.10;;
34565;SDS011;20803;42.676;26.348;2023-08-06T07:13:02;10.80;;;7.63;;
34565;SDS011;20803;42.676;26.348;2023-08-06T07:15:27;8.87;;;6.87;;
34565;SDS011;20803;42.676;26.348;2023-08-06T07:17:52;10.13;;;7.37;;
34565;SDS011;20803;42.676;26.348;2023-08-06T07:20:18;8.13;;;6.50;;
34565;SDS011;20803;42.676;26.348;2023-08-06T07:22:44;7.97;;;7.10;;
34565;SDS011;20803;42.676;26.348;2023-08-06T07:25:09;12.13;;;6.90;;
34565;SDS011;20803;42.676;26.348;2023-08-06T07:27:35;8.83;;;7.93;;
34565;SDS011;20803;42.676;26.348;2023-08-06T07:30:00;13.47;;;7.93;;
34565;SDS011;20803;42.676;26.348;2023-08-06T07:32:26;9.60;;;7.37;;
34565;SDS011;20803;42.676;26.348;2023-08-06T07:34:53;14.73;;;7.93;;
34565;SDS011;20803;42.676;26.348;2023-08-06T07:37:22;8.67;;;7.87;;
34565;SDS011;20803;42.676;26.348;2023-08-06T07:39:48;11.07;;;8.07;;
34565;SDS011;20803;42.676;26.348;2023-08-06T07:42:13;10.47;;;7.90;;
34565;SDS011;20803;42.676;26.348;2023-08-06T07:44:39;9.63;;;8.07;;
34565;SDS011;20803;42.676;26.348;2023-08-06T07:47:04;8.57;;;7.77;;
34565;SDS011;20803;42.676;26.348;2023-08-06T07:49:30;10.77;;;8.17;;
34565;SDS011;20803;42.676;26.348;2023-08-06T07:51:55;9.37;;;8.13;;
34565;SDS011;20803;42.676;26.348;2023-08-06T07:54:21;8.27;;;7.43;;
34565;SDS011;20803;42.676;26.348;2023-08-06T07:56:47;11.37;;;7.67;;
34565;SDS011;20803;42.676;26.348;2023-08-06T07:59:12;9.07;;;8.00;;
34565;SDS011;20803;42.676;26.348;2023-08-06T08:01:38;9.83;;;8.20;;
34565;SDS011;20803;42.676;26.348;2023-08-06T08:04:03;10.23;;;8.10;;
34565;SDS011;20803;42.676;26.348;2023-08-06T08:06:30;8.80;;;7.73;;
34565;SDS011;20803;42.676;26.348;2023-08-06T08:08:55;9.53;;;7.73;;
34565;SDS011;20803;42.676;26.348;2023-08-06T08:11:20;11.63;;;7.57;;
34565;SDS011;20803;42.676;26.348;2023-08-06T08:13:46;9.47;;;7.80;;
34565;SDS011;20803;42.676;26.348;2023-08-06T08:16:11;11.33;;;7.93;;
34565;SDS011;20803;42.676;26.348;2023-08-06T08:18:37;12.83;;;8.13;;
34565;SDS011;20803;42.676;26.348;2023-08-06T08:21:02;13.43;;;8.20;;
34565;SDS011;20803;42.676;26.348;2023-08-06T08:23:28;8.83;;;8.03;;
34565;SDS011;20803;42.676;26.348;2023-08-06T08:25:53;9.07;;;8.10;;
34565;SDS011;20803;42.676;26.348;2023-08-06T08:28:19;10.63;;;8.43;;
34565;SDS011;20803;42.676;26.348;2023-08-06T08:30:45;9.50;;;8.43;;
34565;SDS011;20803;42.676;26.348;2023-08-06T08:33:10;14.10;;;8.27;;
34565;SDS011;20803;42.676;26.348;2023-08-06T08:35:36;9.73;;;8.40;;
34565;SDS011;20803;42.676;26.348;2023-08-06T08:38:02;11.83;;;8.70;;
34565;SDS011;20803;42.676;26.348;2023-08-06T08:40:30;12.63;;;8.30;;
34565;SDS011;20803;42.676;26.348;2023-08-06T08:42:57;9.30;;;8.03;;
34565;SDS011;20803;42.676;26.348;2023-08-06T08:45:28;10.20;;;8.10;;
34565;SDS011;20803;42.676;26.348;2023-08-06T08:47:54;11.27;;;8.03;;
34565;SDS011;20803;42.676;26.348;2023-08-06T08:50:20;8.77;;;7.90;;
34565;SDS011;20803;42.676;26.348;2023-08-06T08:52:47;9.20;;;8.10;;
34565;SDS011;20803;42.676;26.348;2023-08-06T08:55:15;11.30;;;8.73;;
34565;SDS011;20803;42.676;26.348;2023-08-06T08:57:41;9.50;;;8.60;;
34565;SDS011;20803;42.676;26.348;2023-08-06T09:00:07;11.70;;;10.00;;
34565;SDS011;20803;42.676;26.348;2023-08-06T09:02:33;26.93;;;8.50;;
34565;SDS011;20803;42.676;26.348;2023-08-06T09:05:01;24.27;;;7.47;;
34565;SDS011;20803;42.676;26.348;2023-08-06T09:07:34;10.00;;;5.00;;
34565;SDS011;20803;42.676;26.348;2023-08-06T09:10:04;10.30;;;5.23;;
34565;SDS011;20803;42.676;26.348;2023-08-06T09:12:31;10.80;;;5.50;;
34565;SDS011;20803;42.676;26.348;2023-08-06T09:14:57;4.90;;;4.33;;
34565;SDS011;20803;42.676;26.348;2023-08-06T09:17:23;4.30;;;3.90;;
34565;SDS011;20803;42.676;26.348;2023-08-06T09:19:49;5.47;;;4.17;;
34565;SDS011;20803;42.676;26.348;2023-08-06T09:22:32;5.63;;;4.40;;
34565;SDS011;20803;42.676;26.348;2023-08-06T09:25:00;5.40;;;4.10;;
34565;SDS011;20803;42.676;26.348;2023-08-06T09:27:25;8.60;;;5.53;;
34565;SDS011;20803;42.676;26.348;2023-08-06T09:29:51;7.27;;;5.23;;
34565;SDS011;20803;42.676;26.348;2023-08-06T09:32:17;6.57;;;5.17;;
34565;SDS011;20803;42.676;26.348;2023-08-06T09:34:42;7.47;;;5.53;;
34565;SDS011;20803;42.676;26.348;2023-08-06T09:37:08;5.40;;;4.90;;
34565;SDS011;20803;42.676;26.348;2023-08-06T09:39:36;6.40;;;4.87;;
34565;SDS011;20803;42.676;26.348;2023-08-06T09:42:02;6.33;;;5.00;;
34565;SDS011;20803;42.676;26.348;2023-08-06T09:44:30;6.67;;;4.63;;
34565;SDS011;20803;42.676;26.348;2023-08-06T09:46:57;7.33;;;5.17;;
34565;SDS011;20803;42.676;26.348;2023-08-06T09:49:27;5.47;;;4.93;;
34565;SDS011;20803;42.676;26.348;2023-08-06T09:52:05;12.53;;;4.83;;
34565;SDS011;20803;42.676;26.348;2023-08-06T09:54:31;5.50;;;5.00;;
34565;SDS011;20803;42.676;26.348;2023-08-06T09:56:58;4.90;;;4.40;;
34565;SDS011;20803;42.676;26.348;2023-08-06T09:59:25;4.93;;;4.30;;
34565;SDS011;20803;42.676;26.348;2023-08-06T10:01:51;4.87;;;4.33;;
34565;SDS011;20803;42.676;26.348;2023-08-06T10:04:19;5.23;;;4.10;;
34565;SDS011;20803;42.676;26.348;2023-08-06T10:06:46;5.93;;;4.47;;
34565;SDS011;20803;42.676;26.348;2023-08-06T10:09:15;7.33;;;6.63;;
34565;SDS011;20803;42.676;26.348;2023-08-06T10:11:42;6.33;;;5.73;;
34565;SDS011;20803;42.676;26.348;2023-08-06T10:14:12;8.53;;;5.87;;
34565;SDS011;20803;42.676;26.348;2023-08-06T10:16:41;5.77;;;4.20;;
34565;SDS011;20803;42.676;26.348;2023-08-06T10:19:09;4.67;;;4.10;;
34565;SDS011;20803;42.676;26.348;2023-08-06T10:21:39;4.33;;;3.63;;
34565;SDS011;20803;42.676;26.348;2023-08-06T10:24:08;4.63;;;3.70;;
34565;SDS011;20803;42.676;26.348;2023-08-06T10:26:35;3.83;;;3.50;;
34565;SDS011;20803;42.676;26.348;2023-08-06T10:29:01;4.90;;;3.90;;
34565;SDS011;20803;42.676;26.348;2023-08-06T10:31:53;4.90;;;3.63;;
34565;SDS011;20803;42.676;26.348;2023-08-06T10:37:18;5.10;;;4.60;;
34565;SDS011;20803;42.676;26.348;2023-08-06T10:39:53;6.93;;;5.27;;
34565;SDS011;20803;42.676;26.348;2023-08-06T10:42:22;6.97;;;6.27;;
34565;SDS011;20803;42.676;26.348;2023-08-06T10:47:39;6.20;;;5.60;;
34565;SDS011;20803;42.676;26.348;2023-08-06T10:50:05;5.93;;;4.67;;
34565;SDS011;20803;42.676;26.348;2023-08-06T10:52:33;4.53;;;4.03;;
34565;SDS011;20803;42.676;26.348;2023-08-06T10:54:59;4.60;;;3.73;;
34565;SDS011;20803;42.676;26.348;2023-08-06T10:57:25;5.50;;;3.70;;
34565;SDS011;20803;42.676;26.348;2023-08-06T10:59:50;5.57;;;3.57;;
34565;SDS011;20803;42.676;26.348;2023-08-06T11:02:16;3.77;;;3.47;;
34565;SDS011;20803;42.676;26.348;2023-08-06T11:04:41;3.80;;;3.50;;
34565;SDS011;20803;42.676;26.348;2023-08-06T11:07:07;7.67;;;4.17;;
34565;SDS011;20803;42.676;26.348;2023-08-06T11:09:32;4.23;;;3.80;;
34565;SDS011;20803;42.676;26.348;2023-08-06T11:11:58;5.50;;;3.70;;
34565;SDS011;20803;42.676;26.348;2023-08-06T11:14:23;6.07;;;3.60;;
34565;SDS011;20803;42.676;26.348;2023-08-06T11:16:48;7.13;;;5.03;;
34565;SDS011;20803;42.676;26.348;2023-08-06T11:19:15;4.93;;;4.20;;
34565;SDS011;20803;42.676;26.348;2023-08-06T11:21:41;4.80;;;3.37;;
34565;SDS011;20803;42.676;26.348;2023-08-06T11:24:10;5.13;;;3.60;;
34565;SDS011;20803;42.676;26.348;2023-08-06T11:26:36;6.13;;;3.60;;
34565;SDS011;20803;42.676;26.348;2023-08-06T11:29:02;3.43;;;3.07;;
34565;SDS011;20803;42.676;26.348;2023-08-06T11:31:28;5.60;;;3.73;;
34565;SDS011;20803;42.676;26.348;2023-08-06T11:33:55;3.53;;;3.20;;
34565;SDS011;20803;42.676;26.348;2023-08-06T11:36:30;4.00;;;3.60;;
34565;SDS011;20803;42.676;26.348;2023-08-06T11:38:57;4.43;;;3.53;;
34565;SDS011;20803;42.676;26.348;2023-08-06T11:41:24;4.47;;;3.50;;
34565;SDS011;20803;42.676;26.348;2023-08-06T11:43:50;4.93;;;3.63;;
34565;SDS011;20803;42.676;26.348;2023-08-06T11:46:15;5.83;;;4.57;;
34565;SDS011;20803;42.676;26.348;2023-08-06T11:51:22;5.90;;;4.80;;
34565;SDS011;20803;42.676;26.348;2023-08-06T11:53:49;5.67;;;3.70;;
34565;SDS011;20803;42.676;26.348;2023-08-06T11:56:15;4.07;;;3.50;;
34565;SDS011;20803;42.676;26.348;2023-08-06T11:58:41;3.73;;;3.43;;
34565;SDS011;20803;42.676;26.348;2023-08-06T12:01:07;5.83;;;3.73;;
34565;SDS011;20803;42.676;26.348;2023-08-06T12:03:38;5.30;;;4.13;;
34565;SDS011;20803;42.676;26.348;2023-08-06T12:06:04;5.63;;;4.37;;
34565;SDS011;20803;42.676;26.348;2023-08-06T12:08:29;5.03;;;4.53;;
34565;SDS011;20803;42.676;26.348;2023-08-06T12:10:55;4.37;;;3.90;;
34565;SDS011;20803;42.676;26.348;2023-08-06T12:13:20;3.83;;;3.43;;
34565;SDS011;20803;42.676;26.348;2023-08-06T12:15:46;4.10;;;3.70;;
34565;SDS011;20803;42.676;26.348;2023-08-06T12:18:11;5.43;;;3.73;;
34565;SDS011;20803;42.676;26.348;2023-08-06T12:20:36;5.43;;;4.20;;
34565;SDS011;20803;42.676;26.348;2023-08-06T12:23:03;5.03;;;4.07;;
34565;SDS011;20803;42.676;26.348;2023-08-06T12:25:29;5.47;;;4.63;;
34565;SDS011;20803;42.676;26.348;2023-08-06T12:27:54;5.27;;;4.77;;
34565;SDS011;20803;42.676;26.348;2023-08-06T12:30:20;7.07;;;4.70;;
34565;SDS011;20803;42.676;26.348;2023-08-06T12:32:45;5.37;;;4.83;;
34565;SDS011;20803;42.676;26.348;2023-08-06T12:35:10;7.13;;;4.37;;
34565;SDS011;20803;42.676;26.348;2023-08-06T12:37:36;4.50;;;4.10;;
34565;SDS011;20803;42.676;26.348;2023-08-06T12:40:03;4.30;;;3.90;;
34565;SDS011;20803;42.676;26.348;2023-08-06T12:42:29;4.27;;;3.87;;
34565;SDS011;20803;42.676;26.348;2023-08-06T12:44:55;4.77;;;4.27;;
34565;SDS011;20803;42.676;26.348;2023-08-06T12:47:20;4.77;;;3.70;;
34565;SDS011;20803;42.676;26.348;2023-08-06T12:49:46;4.50;;;4.10;;
34565;SDS011;20803;42.676;26.348;2023-08-06T12:52:11;4.23;;;3.20;;
34565;SDS011;20803;42.676;26.348;2023-08-06T12:54:40;3.67;;;3.27;;
34565;SDS011;20803;42.676;26.348;2023-08-06T12:57:05;3.47;;;2.93;;
34565;SDS011;20803;42.676;26.348;2023-08-06T12:59:31;4.50;;;3.30;;
34565;SDS011;20803;42.676;26.348;2023-08-06T13:02:01;2.93;;;2.70;;
34565;SDS011;20803;42.676;26.348;2023-08-06T13:04:27;3.77;;;2.87;;
34565;SDS011;20803;42.676;26.348;2023-08-06T13:06:53;3.10;;;2.80;;
34565;SDS011;20803;42.676;26.348;2023-08-06T13:09:18;4.07;;;2.37;;
34565;SDS011;20803;42.676;26.348;2023-08-06T13:11:44;2.90;;;2.50;;
34565;SDS011;20803;42.676;26.348;2023-08-06T13:14:11;3.80;;;2.67;;
34565;SDS011;20803;42.676;26.348;2023-08-06T13:16:39;3.33;;;2.97;;
34565;SDS011;20803;42.676;26.348;2023-08-06T13:19:06;3.70;;;2.93;;
34565;SDS011;20803;42.676;26.348;2023-08-06T13:21:35;3.23;;;2.93;;
34565;SDS011;20803;42.676;26.348;2023-08-06T13:24:23;3.27;;;2.90;;
34565;SDS011;20803;42.676;26.348;2023-08-06T13:26:48;3.03;;;2.73;;
34565;SDS011;20803;42.676;26.348;2023-08-06T13:29:13;4.57;;;3.30;;
34565;SDS011;20803;42.676;26.348;2023-08-06T13:31:39;4.13;;;3.07;;
34565;SDS011;20803;42.676;26.348;2023-08-06T13:34:04;4.23;;;3.70;;
34565;SDS011;20803;42.676;26.348;2023-08-06T13:36:30;4.20;;;3.90;;
34565;SDS011;20803;42.676;26.348;2023-08-06T13:38:56;4.30;;;3.90;;
34565;SDS011;20803;42.676;26.348;2023-08-06T13:41:21;10.50;;;8.17;;
34565;SDS011;20803;42.676;26.348;2023-08-06T13:43:47;5.53;;;5.03;;
34565;SDS011;20803;42.676;26.348;2023-08-06T13:46:13;4.90;;;3.93;;
34565;SDS011;20803;42.676;26.348;2023-08-06T13:48:43;6.50;;;4.97;;
34565;SDS011;20803;42.676;26.348;2023-08-06T13:51:09;3.80;;;3.50;;
34565;SDS011;20803;42.676;26.348;2023-08-06T13:53:36;6.13;;;4.23;;
34565;SDS011;20803;42.676;26.348;2023-08-06T13:56:02;4.33;;;3.67;;
34565;SDS011;20803;42.676;26.348;2023-08-06T13:58:28;3.50;;;3.20;;
34565;SDS011;20803;42.676;26.348;2023-08-06T14:00:53;3.90;;;3.10;;
34565;SDS011;20803;42.676;26.348;2023-08-06T14:03:19;4.70;;;3.03;;
34565;SDS011;20803;42.676;26.348;2023-08-06T14:05:45;4.03;;;3.00;;
34565;SDS011;20803;42.676;26.348;2023-08-06T14:08:11;4.13;;;3.20;;
34565;SDS011;20803;42.676;26.348;2023-08-06T14:10:36;5.83;;;4.40;;
34565;SDS011;20803;42.676;26.348;2023-08-06T14:13:02;3.80;;;2.70;;
34565;SDS011;20803;42.676;26.348;2023-08-06T14:15:27;3.13;;;2.90;;
34565;SDS011;20803;42.676;26.348;2023-08-06T14:17:53;2.57;;;2.37;;
34565;SDS011;20803;42.676;26.348;2023-08-06T14:20:18;5.00;;;3.10;;
34565;SDS011;20803;42.676;26.348;2023-08-06T14:22:44;2.63;;;2.43;;
34565;SDS011;20803;42.676;26.348;2023-08-06T14:25:09;2.50;;;2.30;;
34565;SDS011;20803;42.676;26.348;2023-08-06T14:27:34;3.57;;;2.40;;
34565;SDS011;20803;42.676;26.348;2023-08-06T14:30:00;3.63;;;2.70;;
34565;SDS011;20803;42.676;26.348;2023-08-06T14:32:27;2.60;;;2.40;;
34565;SDS011;20803;42.676;26.348;2023-08-06T14:34:53;2.83;;;2.30;;
34565;SDS011;20803;42.676;26.348;2023-08-06T14:37:19;2.90;;;2.70;;